Terminal Aerodrome Forecast
Issued by NWS Louisville, KY

Home | Current Version | Previous Version | Text Only | Print | Product List | Glossary On
Versions: 1 2 3 4 5 6 7 8 9 10 11 12 13 14
000
FTUS43 KLMK 242326
TAFBWG
TAF
KBWG 242326Z 2500/2524 14005KT P6SM SCT250
     FM250600 18006KT P6SM SCT045 WS015/19035KT
     FM251300 19008KT P6SM BKN022 WS019/22039KT
     FM251600 20012G20KT P6SM OVC016
     FM252200 22011G20KT P6SM BKN029=

USA.gov is the U.S. government's official web portal to all federal, state and local government web resources and services.